KAWOKORS

Guest
Details From KAWO - Arlington Municipal
To KORS - Orcas Island
Flight Number -
Tags generated
Created
Modified
Stats Distance 45 nm / 84 km
Max Altitude 5,200 ft / 1,585 m
Waypoints 3
Social Downloads 3
Likes 0
Share VATSIM

Download

Looking for another format? Having issues loading an existing format? Contact us
Advertisement - Login to hide

Notes

Basic altitude profile: - Ascent Rate: 2500ft/min - Ascent Speed: 250kts - Cruise Altitude: 35000ft - Cruise Speed: 420kts - Descent Rate: 1500ft/min - Descent Speed: 250kts

Route

KAWO IWANY KORS

ID Type Via Altitude Latitude Longitude Leg Dist Tot Dist Heading (true) Name
O KAWO APT - 0 ft / 0 m 48.16041˚ -122.15972˚ - 0 nm - Arlington Municipal
IWANY FIX - 5,200 ft / 1,585 m 48.45505˚ -122.43362˚ 20 nm 20 nm 328° / 328° -
O KORS APT - 0 ft / 0 m 48.70832˚ -122.91061˚ 24 nm 45 nm 309° / 309° Orcas Island

Altitude Profile

Advertisement - Login to hide

KAWO

Details ICAO KAWO
Name Arlington Municipal
Region United States
Timezone America/Los_Angeles (UTC-8.0)
Stats Elevation 465 ft / 142 m (AMSL)
Location 48.160406° -122.159723°
Runways 2
Magnetic Variation 15.827° E

METAR

KAWO 151756Z AUTO 00000KT 10SM -RA SCT049 OVC060 03/03 A3022 RMK AO2 RAB33 SLP239 P0000 60000 T00330033 10033 20011 51012

Decode

TAF

Not found

Departure Runways

ID Width Length Bearing (true) Bearing (mag) Surface Threshold Offset Overrun Length
11 75 ft / 23 m 3,512 ft / 1,071 m 127.31° 111.48° Asphalt 0 ft / 0 m 0 ft / 0 m
16 108 ft / 33 m 5,321 ft / 1,622 m 179.06° 163.23° Asphalt 0 ft / 0 m 0 ft / 0 m
29 75 ft / 23 m 3,512 ft / 1,071 m 307.32° 291.49° Asphalt 0 ft / 0 m 0 ft / 0 m
34 108 ft / 33 m 5,321 ft / 1,622 m 359.06° 343.23° Asphalt 0 ft / 0 m 0 ft / 0 m

KORS

Details ICAO KORS (ESD)
Name Orcas Island
Region United States
Timezone America/Los_Angeles (UTC-8.0)
Stats Elevation 25 ft / 8 m (AMSL)
Location 48.708318° -122.910606°
Runways 1
Magnetic Variation 16.098° E

METAR

KORS 151755Z AUTO 00000KT 3/4SM +UP BKN005 OVC010 06/06 A3020 RMK AO2

Decode

TAF

Not found

Destination Runways

ID Width Length Bearing (true) Bearing (mag) Surface Threshold Offset Overrun Length
16 59 ft / 18 m 2,895 ft / 882 m 180.23° 164.13° Asphalt 0 ft / 0 m 240 ft / 73 m
34 59 ft / 18 m 2,895 ft / 882 m 0.23° 344.13° Asphalt 0 ft / 0 m 259 ft / 79 m